Chitina, AK

10:33 PM AKDT on May 05, 2015 (GMT -0800)
RAWS | | Change Station
CLOSE
Current Station
Personal Weather Station
Location: Chitina, AK
Elevation: 4060 ft
Nearby Weather Stations

Elev 4060 ft 61.60 °N, 143.01 °W | Updated 1 hour ago

Overcast
Overcast
36 °F
Feels Like 33 °F
N
4
Wind Variable Wind from WNW
Gusts 9.0 mph

Today
High -- | Low -- °F
--% Chance of Precip.
Yesterday
High -- | Low -- °F
Precip. -- in
5:09 AM 9:49 PM
Waning Gibbous, 95% visible
Pressure 30.12 in
Visibility 10.0 miles
Clouds Scattered Clouds 7500 ft
Overcast 10000 ft
Windchill 33 °F
Dew Point 16 °F
Humidity 43%
Rainfall in
Snow Depth Not available.
UV 0 out of 12
Pollen Not available.
Air Quality Not available.
Flu Activity Sporadic
METAR PAGK 060553Z AUTO 17006KT 10SM SCT075 OVC100 08/M06 A3009 RMK AO2 SLP200 T00781061 10122 20078 53020 TSNO

More Conditions Fewer Conditions

Pressure 30.12 in
Visibility 10.0 miles
Clouds Scattered Clouds 7500 ft
Overcast 10000 ft
Windchill 33 °F
Dew Point 16 °F
Humidity 43%
Rainfall in
Snow Depth Not available.
UV 0 out of 12
Pollen Not available.
Air Quality Not available.
Flu Activity Sporadic
METAR PAGK 060553Z AUTO 17006KT 10SM SCT075 OVC100 08/M06 A3009 RMK AO2 SLP200 T00781061 10122 20078 53020 TSNO

More Conditions Fewer Conditions

10-Day Weather Forecast

Almanac

Astronomy

May. 05, 2015 Rise Set
Actual Time
Civil Twilight
Nautical Twilight
Astronomical Twilight
Moon
Length of Visible Light
Length of Day
Tomorrow will be .
, % of the Moon is Illuminated

Today's Extremes

State Highs State Lows

Community

WunderPhotos

Upload Photos

1,818,850 photos uploaded!

WunderBlogs® & News

Nearby

Air Quality

  Air Quality AQ Index Pollutant
Not available.

Snow Depth

Station Depth Elevation

Earthquake Activity

City Distance Mag. Time & Date
Minimum magnitude displayed is 2.5.

Coastal Water Temperatures

Place Temperature

Stations

Nearby Weather Stations

Station Location Temp. Windchill Dew Point Humidity Wind Precip. Elev Updated Type